< < Back
Terminal Aerodrome Forecast


Current Version              Previous Versions:   1  2  3  4  5  6  7  8  9  

Terminal Aerodrome Forecast

656
FTUS42 KILM 232320
TAFILM
TAF
KILM 232320Z 2400/2424 21013G20KT P6SM BKN250
     FM240200 23009KT P6SM BKN250
     FM240600 24008KT P6SM VCSH SCT050 BKN150
     FM241500 24011KT P6SM FEW050=

Latest METAR

783
SAUS70 KWBC 242000 RRG
MTRILM
METAR KILM 241953Z AUTO 31005KT 10SM FEW075 26/21 A3000 RMK AO2 LTG DSNT
W-NE RAE02 SLP157 P0000 T02610211


USA.gov is the U.S. government's official web portal to all federal, state and local government web resources and services.